sensor_id;sensor_type;location;lat;lon;timestamp;temperature;humidity
3846;DHT22;1938;50.812;7.738;2023-01-16T00:00:43;3.80;99.90
3846;DHT22;1938;50.812;7.738;2023-01-16T00:03:09;3.80;99.90
3846;DHT22;1938;50.812;7.738;2023-01-16T00:05:35;3.80;99.90
3846;DHT22;1938;50.812;7.738;2023-01-16T00:08:00;3.80;99.90
3846;DHT22;1938;50.812;7.738;2023-01-16T00:10:26;3.80;99.90
3846;DHT22;1938;50.812;7.738;2023-01-16T00:12:51;3.70;99.90
3846;DHT22;1938;50.812;7.738;2023-01-16T00:15:18;3.70;99.90
3846;DHT22;1938;50.812;7.738;2023-01-16T00:17:44;3.80;99.90
3846;DHT22;1938;50.812;7.738;2023-01-16T00:20:10;3.90;99.90
3846;DHT22;1938;50.812;7.738;2023-01-16T00:22:35;3.90;99.90
3846;DHT22;1938;50.812;7.738;2023-01-16T00:25:01;3.90;99.90
3846;DHT22;1938;50.812;7.738;2023-01-16T00:27:26;3.90;99.90
3846;DHT22;1938;50.812;7.738;2023-01-16T00:29:53;3.80;99.90
3846;DHT22;1938;50.812;7.738;2023-01-16T00:32:18;3.80;99.90
3846;DHT22;1938;50.812;7.738;2023-01-16T00:34:44;3.80;99.90
3846;DHT22;1938;50.812;7.738;2023-01-16T00:37:11;3.80;99.90
3846;DHT22;1938;50.812;7.738;2023-01-16T00:39:36;3.80;99.90
3846;DHT22;1938;50.812;7.738;2023-01-16T00:42:05;3.70;99.90
3846;DHT22;1938;50.812;7.738;2023-01-16T00:44:30;3.80;99.90
3846;DHT22;1938;50.812;7.738;2023-01-16T00:46:56;3.80;99.90
3846;DHT22;1938;50.812;7.738;2023-01-16T00:49:22;3.80;99.90
3846;DHT22;1938;50.812;7.738;2023-01-16T00:51:47;3.80;99.90
3846;DHT22;1938;50.812;7.738;2023-01-16T00:54:13;3.80;99.90
3846;DHT22;1938;50.812;7.738;2023-01-16T00:56:39;3.80;99.90
3846;DHT22;1938;50.812;7.738;2023-01-16T00:59:04;3.80;99.90
3846;DHT22;1938;50.812;7.738;2023-01-16T01:01:30;3.80;99.90
3846;DHT22;1938;50.812;7.738;2023-01-16T01:03:58;3.80;99.90
3846;DHT22;1938;50.812;7.738;2023-01-16T01:06:24;3.70;99.90
3846;DHT22;1938;50.812;7.738;2023-01-16T01:08:49;3.80;99.90
3846;DHT22;1938;50.812;7.738;2023-01-16T01:11:15;3.80;99.90
3846;DHT22;1938;50.812;7.738;2023-01-16T01:13:41;3.80;99.90
3846;DHT22;1938;50.812;7.738;2023-01-16T01:16:08;3.80;99.90
3846;DHT22;1938;50.812;7.738;2023-01-16T01:18:34;3.80;99.90
3846;DHT22;1938;50.812;7.738;2023-01-16T01:21:00;3.80;99.90
3846;DHT22;1938;50.812;7.738;2023-01-16T01:23:25;3.80;99.90
3846;DHT22;1938;50.812;7.738;2023-01-16T01:25:52;3.80;99.90
3846;DHT22;1938;50.812;7.738;2023-01-16T01:28:18;3.70;99.90
3846;DHT22;1938;50.812;7.738;2023-01-16T01:30:43;3.70;99.90
3846;DHT22;1938;50.812;7.738;2023-01-16T01:33:09;3.70;99.90
3846;DHT22;1938;50.812;7.738;2023-01-16T01:35:35;3.70;99.90
3846;DHT22;1938;50.812;7.738;2023-01-16T01:38:01;3.70;99.90
3846;DHT22;1938;50.812;7.738;2023-01-16T01:40:28;3.70;99.90
3846;DHT22;1938;50.812;7.738;2023-01-16T01:42:53;3.70;99.90
3846;DHT22;1938;50.812;7.738;2023-01-16T01:45:26;3.70;99.90
3846;DHT22;1938;50.812;7.738;2023-01-16T01:50:44;3.70;99.90
3846;DHT22;1938;50.812;7.738;2023-01-16T01:53:31;3.60;99.90
3846;DHT22;1938;50.812;7.738;2023-01-16T01:56:04;3.60;99.90
3846;DHT22;1938;50.812;7.738;2023-01-16T01:58:32;3.60;99.90
3846;DHT22;1938;50.812;7.738;2023-01-16T02:00:59;3.60;99.90
3846;DHT22;1938;50.812;7.738;2023-01-16T02:03:41;3.50;99.90
3846;DHT22;1938;50.812;7.738;2023-01-16T02:06:14;3.50;99.90
3846;DHT22;1938;50.812;7.738;2023-01-16T02:08:42;3.50;99.90
3846;DHT22;1938;50.812;7.738;2023-01-16T02:11:16;3.50;99.90
3846;DHT22;1938;50.812;7.738;2023-01-16T02:13:59;3.50;99.90
3846;DHT22;1938;50.812;7.738;2023-01-16T02:16:25;3.50;99.90
3846;DHT22;1938;50.812;7.738;2023-01-16T02:19:21;3.60;99.90
3846;DHT22;1938;50.812;7.738;2023-01-16T02:25:04;3.50;99.90
3846;DHT22;1938;50.812;7.738;2023-01-16T02:33:03;3.50;99.90
3846;DHT22;1938;50.812;7.738;2023-01-16T02:36:10;3.40;99.90
3846;DHT22;1938;50.812;7.738;2023-01-16T02:41:46;3.40;99.90
3846;DHT22;1938;50.812;7.738;2023-01-16T02:44:30;3.40;99.90
3846;DHT22;1938;50.812;7.738;2023-01-16T02:47:22;3.50;99.90
3846;DHT22;1938;50.812;7.738;2023-01-16T02:50:14;3.40;99.90
3846;DHT22;1938;50.812;7.738;2023-01-16T02:53:07;3.40;99.90
3846;DHT22;1938;50.812;7.738;2023-01-16T02:55:59;3.40;99.90
3846;DHT22;1938;50.812;7.738;2023-01-16T02:58:31;3.40;99.90
3846;DHT22;1938;50.812;7.738;2023-01-16T03:00:58;3.40;99.90
3846;DHT22;1938;50.812;7.738;2023-01-16T03:03:50;3.30;99.90
3846;DHT22;1938;50.812;7.738;2023-01-16T03:06:44;3.40;99.90
3846;DHT22;1938;50.812;7.738;2023-01-16T03:11:57;3.40;99.90
3846;DHT22;1938;50.812;7.738;2023-01-16T03:14:37;3.40;99.90
3846;DHT22;1938;50.812;7.738;2023-01-16T03:17:29;3.40;99.90
3846;DHT22;1938;50.812;7.738;2023-01-16T03:23:09;3.40;99.90
3846;DHT22;1938;50.812;7.738;2023-01-16T03:25:51;3.50;99.90
3846;DHT22;1938;50.812;7.738;2023-01-16T03:28:41;3.50;99.90
3846;DHT22;1938;50.812;7.738;2023-01-16T03:31:17;3.50;99.90
3846;DHT22;1938;50.812;7.738;2023-01-16T03:34:11;3.50;99.90
3846;DHT22;1938;50.812;7.738;2023-01-16T03:36:48;3.50;99.90
3846;DHT22;1938;50.812;7.738;2023-01-16T03:39:17;3.50;99.90
3846;DHT22;1938;50.812;7.738;2023-01-16T03:41:47;3.50;99.90
3846;DHT22;1938;50.812;7.738;2023-01-16T03:44:26;3.50;99.90
3846;DHT22;1938;50.812;7.738;2023-01-16T03:46:55;3.40;99.90
3846;DHT22;1938;50.812;7.738;2023-01-16T03:49:25;3.40;99.90
3846;DHT22;1938;50.812;7.738;2023-01-16T03:51:57;3.40;99.90
3846;DHT22;1938;50.812;7.738;2023-01-16T03:57:40;3.50;99.90
3846;DHT22;1938;50.812;7.738;2023-01-16T04:00:08;3.60;99.90
3846;DHT22;1938;50.812;7.738;2023-01-16T04:05:31;3.50;99.90
3846;DHT22;1938;50.812;7.738;2023-01-16T04:10:31;3.50;99.90
3846;DHT22;1938;50.812;7.738;2023-01-16T04:13:06;3.50;99.90
3846;DHT22;1938;50.812;7.738;2023-01-16T04:15:36;3.50;99.90
3846;DHT22;1938;50.812;7.738;2023-01-16T04:18:02;3.40;99.90
3846;DHT22;1938;50.812;7.738;2023-01-16T04:20:29;3.40;99.90
3846;DHT22;1938;50.812;7.738;2023-01-16T04:22:55;3.30;99.90
3846;DHT22;1938;50.812;7.738;2023-01-16T04:25:21;3.30;99.90
3846;DHT22;1938;50.812;7.738;2023-01-16T04:27:46;3.30;99.90
3846;DHT22;1938;50.812;7.738;2023-01-16T04:30:13;3.30;99.90
3846;DHT22;1938;50.812;7.738;2023-01-16T04:32:41;3.30;99.90
3846;DHT22;1938;50.812;7.738;2023-01-16T04:35:06;3.20;99.90
3846;DHT22;1938;50.812;7.738;2023-01-16T04:37:33;3.20;99.90
3846;DHT22;1938;50.812;7.738;2023-01-16T04:39:59;3.20;99.90
3846;DHT22;1938;50.812;7.738;2023-01-16T04:42:25;3.30;99.90
3846;DHT22;1938;50.812;7.738;2023-01-16T04:44:50;3.30;99.90
3846;DHT22;1938;50.812;7.738;2023-01-16T04:47:17;3.20;99.90
3846;DHT22;1938;50.812;7.738;2023-01-16T04:49:42;3.30;99.90
3846;DHT22;1938;50.812;7.738;2023-01-16T04:52:09;3.20;99.90
3846;DHT22;1938;50.812;7.738;2023-01-16T04:54:35;3.20;99.90
3846;DHT22;1938;50.812;7.738;2023-01-16T04:57:01;3.30;99.90
3846;DHT22;1938;50.812;7.738;2023-01-16T04:59:27;3.40;99.90
3846;DHT22;1938;50.812;7.738;2023-01-16T05:01:52;3.40;99.90
3846;DHT22;1938;50.812;7.738;2023-01-16T05:04:19;3.40;99.90
3846;DHT22;1938;50.812;7.738;2023-01-16T05:06:45;3.40;99.90
3846;DHT22;1938;50.812;7.738;2023-01-16T05:09:11;3.40;99.90
3846;DHT22;1938;50.812;7.738;2023-01-16T05:11:36;3.40;99.90
3846;DHT22;1938;50.812;7.738;2023-01-16T05:14:02;3.40;99.90
3846;DHT22;1938;50.812;7.738;2023-01-16T05:16:30;3.50;99.90
3846;DHT22;1938;50.812;7.738;2023-01-16T05:18:56;3.60;99.90
3846;DHT22;1938;50.812;7.738;2023-01-16T05:21:21;3.60;99.90
3846;DHT22;1938;50.812;7.738;2023-01-16T05:23:47;3.60;81.30
3846;DHT22;1938;50.812;7.738;2023-01-16T05:26:12;3.70;99.90
3846;DHT22;1938;50.812;7.738;2023-01-16T05:28:38;3.70;30.30
3846;DHT22;1938;50.812;7.738;2023-01-16T05:31:03;3.70;99.90
3846;DHT22;1938;50.812;7.738;2023-01-16T05:33:29;3.70;99.90
3846;DHT22;1938;50.812;7.738;2023-01-16T05:35:56;3.80;99.90
3846;DHT22;1938;50.812;7.738;2023-01-16T05:38:22;3.80;99.90
3846;DHT22;1938;50.812;7.738;2023-01-16T05:40:48;3.80;99.90
3846;DHT22;1938;50.812;7.738;2023-01-16T05:43:14;3.70;99.90
3846;DHT22;1938;50.812;7.738;2023-01-16T05:45:40;3.80;99.90
3846;DHT22;1938;50.812;7.738;2023-01-16T05:48:06;3.70;99.90
3846;DHT22;1938;50.812;7.738;2023-01-16T05:50:32;3.70;68.90
3846;DHT22;1938;50.812;7.738;2023-01-16T05:52:57;3.70;99.90
3846;DHT22;1938;50.812;7.738;2023-01-16T05:55:23;3.60;91.80
3846;DHT22;1938;50.812;7.738;2023-01-16T05:57:49;3.60;1.00
3846;DHT22;1938;50.812;7.738;2023-01-16T06:00:15;3.60;1.00
3846;DHT22;1938;50.812;7.738;2023-01-16T06:02:41;3.50;1.00
3846;DHT22;1938;50.812;7.738;2023-01-16T06:05:07;3.50;1.00
3846;DHT22;1938;50.812;7.738;2023-01-16T06:07:32;3.50;1.00
3846;DHT22;1938;50.812;7.738;2023-01-16T06:09:58;3.60;99.90
3846;DHT22;1938;50.812;7.738;2023-01-16T06:12:23;3.50;1.00
3846;DHT22;1938;50.812;7.738;2023-01-16T06:14:50;3.60;32.90
3846;DHT22;1938;50.812;7.738;2023-01-16T06:17:16;3.50;1.00
3846;DHT22;1938;50.812;7.738;2023-01-16T06:19:42;3.50;99.90
3846;DHT22;1938;50.812;7.738;2023-01-16T06:22:09;3.50;1.00
3846;DHT22;1938;50.812;7.738;2023-01-16T06:24:35;3.50;99.90
3846;DHT22;1938;50.812;7.738;2023-01-16T06:27:00;3.50;1.00
3846;DHT22;1938;50.812;7.738;2023-01-16T06:29:26;3.50;1.00
3846;DHT22;1938;50.812;7.738;2023-01-16T06:31:53;3.70;99.90
3846;DHT22;1938;50.812;7.738;2023-01-16T06:34:19;3.80;1.00
3846;DHT22;1938;50.812;7.738;2023-01-16T06:36:45;3.80;1.00
3846;DHT22;1938;50.812;7.738;2023-01-16T06:39:13;3.80;99.90
3846;DHT22;1938;50.812;7.738;2023-01-16T06:41:38;3.80;21.50
3846;DHT22;1938;50.812;7.738;2023-01-16T06:44:04;4.00;99.90
3846;DHT22;1938;50.812;7.738;2023-01-16T06:46:30;4.10;11.60
3846;DHT22;1938;50.812;7.738;2023-01-16T06:48:56;4.20;99.90
3846;DHT22;1938;50.812;7.738;2023-01-16T06:51:21;4.30;1.00
3846;DHT22;1938;50.812;7.738;2023-01-16T06:53:47;4.20;99.90
3846;DHT22;1938;50.812;7.738;2023-01-16T06:56:12;4.20;83.10
3846;DHT22;1938;50.812;7.738;2023-01-16T06:58:38;4.30;99.90
3846;DHT22;1938;50.812;7.738;2023-01-16T07:01:03;4.30;1.00
3846;DHT22;1938;50.812;7.738;2023-01-16T07:03:30;4.40;91.50
3846;DHT22;1938;50.812;7.738;2023-01-16T07:05:55;4.40;99.90
3846;DHT22;1938;50.812;7.738;2023-01-16T07:08:21;4.50;1.00
3846;DHT22;1938;50.812;7.738;2023-01-16T07:10:47;4.50;99.90
3846;DHT22;1938;50.812;7.738;2023-01-16T07:13:12;4.50;99.90
3846;DHT22;1938;50.812;7.738;2023-01-16T07:15:38;4.50;63.10
3846;DHT22;1938;50.812;7.738;2023-01-16T07:18:24;4.40;1.00
3846;DHT22;1938;50.812;7.738;2023-01-16T07:21:11;4.40;1.00
3846;DHT22;1938;50.812;7.738;2023-01-16T07:24:00;4.40;1.00
3846;DHT22;1938;50.812;7.738;2023-01-16T07:26:27;4.30;37.30
3846;DHT22;1938;50.812;7.738;2023-01-16T07:28:54;4.30;1.00
3846;DHT22;1938;50.812;7.738;2023-01-16T07:31:21;4.20;16.30
3846;DHT22;1938;50.812;7.738;2023-01-16T07:33:47;4.20;1.00
3846;DHT22;1938;50.812;7.738;2023-01-16T07:36:13;4.10;1.00
3846;DHT22;1938;50.812;7.738;2023-01-16T07:38:39;4.10;7.80
3846;DHT22;1938;50.812;7.738;2023-01-16T07:41:04;4.10;37.20
3846;DHT22;1938;50.812;7.738;2023-01-16T07:43:30;4.10;3.00
3846;DHT22;1938;50.812;7.738;2023-01-16T07:45:55;4.10;1.00
3846;DHT22;1938;50.812;7.738;2023-01-16T07:48:22;4.10;1.00
3846;DHT22;1938;50.812;7.738;2023-01-16T07:50:52;4.10;1.00
3846;DHT22;1938;50.812;7.738;2023-01-16T07:53:19;4.10;1.00
3846;DHT22;1938;50.812;7.738;2023-01-16T07:55:51;4.10;1.00
3846;DHT22;1938;50.812;7.738;2023-01-16T07:58:17;4.10;1.00
3846;DHT22;1938;50.812;7.738;2023-01-16T08:00:44;4.00;1.00
3846;DHT22;1938;50.812;7.738;2023-01-16T08:03:10;4.00;1.00
3846;DHT22;1938;50.812;7.738;2023-01-16T08:05:37;4.00;99.90
3846;DHT22;1938;50.812;7.738;2023-01-16T08:08:03;4.00;99.90
3846;DHT22;1938;50.812;7.738;2023-01-16T08:10:28;3.90;97.50
3846;DHT22;1938;50.812;7.738;2023-01-16T08:12:54;3.80;60.60
3846;DHT22;1938;50.812;7.738;2023-01-16T08:15:19;3.80;99.90
3846;DHT22;1938;50.812;7.738;2023-01-16T08:17:45;3.70;99.90
3846;DHT22;1938;50.812;7.738;2023-01-16T08:20:11;3.60;99.90
3846;DHT22;1938;50.812;7.738;2023-01-16T08:22:47;3.60;1.00
3846;DHT22;1938;50.812;7.738;2023-01-16T08:25:14;3.50;99.90
3846;DHT22;1938;50.812;7.738;2023-01-16T08:27:41;3.40;99.90
3846;DHT22;1938;50.812;7.738;2023-01-16T08:30:08;3.30;1.00
3846;DHT22;1938;50.812;7.738;2023-01-16T08:32:34;3.20;99.90
3846;DHT22;1938;50.812;7.738;2023-01-16T08:35:00;3.10;99.90
3846;DHT22;1938;50.812;7.738;2023-01-16T08:37:25;2.90;85.10
3846;DHT22;1938;50.812;7.738;2023-01-16T08:39:51;2.80;65.80
3846;DHT22;1938;50.812;7.738;2023-01-16T08:42:16;2.80;99.90
3846;DHT22;1938;50.812;7.738;2023-01-16T08:45:00;2.80;99.90
3846;DHT22;1938;50.812;7.738;2023-01-16T08:47:44;2.70;99.90
3846;DHT22;1938;50.812;7.738;2023-01-16T08:50:28;2.60;99.90
3846;DHT22;1938;50.812;7.738;2023-01-16T08:53:12;2.60;99.90
3846;DHT22;1938;50.812;7.738;2023-01-16T08:55:38;2.60;99.90
3846;DHT22;1938;50.812;7.738;2023-01-16T08:58:07;2.60;99.90
3846;DHT22;1938;50.812;7.738;2023-01-16T09:00:33;2.60;99.90
3846;DHT22;1938;50.812;7.738;2023-01-16T09:02:59;2.70;99.90
3846;DHT22;1938;50.812;7.738;2023-01-16T09:05:27;2.90;99.90
3846;DHT22;1938;50.812;7.738;2023-01-16T09:07:52;2.80;99.90
3846;DHT22;1938;50.812;7.738;2023-01-16T09:10:18;2.80;99.90
3846;DHT22;1938;50.812;7.738;2023-01-16T09:12:44;2.80;55.00
3846;DHT22;1938;50.812;7.738;2023-01-16T09:15:28;2.80;84.60
3846;DHT22;1938;50.812;7.738;2023-01-16T09:17:54;2.80;42.40
3846;DHT22;1938;50.812;7.738;2023-01-16T09:20:21;2.90;99.90
3846;DHT22;1938;50.812;7.738;2023-01-16T09:22:46;2.90;39.70
3846;DHT22;1938;50.812;7.738;2023-01-16T09:25:12;2.90;18.80
3846;DHT22;1938;50.812;7.738;2023-01-16T09:27:37;2.90;28.40
3846;DHT22;1938;50.812;7.738;2023-01-16T09:30:04;2.90;19.30
3846;DHT22;1938;50.812;7.738;2023-01-16T09:32:30;2.80;1.00
3846;DHT22;1938;50.812;7.738;2023-01-16T09:34:55;2.90;1.00
3846;DHT22;1938;50.812;7.738;2023-01-16T09:37:21;2.80;7.70
3846;DHT22;1938;50.812;7.738;2023-01-16T09:39:47;2.90;1.00
3846;DHT22;1938;50.812;7.738;2023-01-16T09:42:32;2.90;1.00
3846;DHT22;1938;50.812;7.738;2023-01-16T09:45:21;3.00;1.00
3846;DHT22;1938;50.812;7.738;2023-01-16T09:47:51;3.00;1.00
3846;DHT22;1938;50.812;7.738;2023-01-16T09:53:04;3.10;1.00
3846;DHT22;1938;50.812;7.738;2023-01-16T09:55:50;3.20;99.90
3846;DHT22;1938;50.812;7.738;2023-01-16T09:58:43;3.10;99.90
3846;DHT22;1938;50.812;7.738;2023-01-16T10:01:27;3.10;1.00
3846;DHT22;1938;50.812;7.738;2023-01-16T10:04:03;3.10;1.00
3846;DHT22;1938;50.812;7.738;2023-01-16T10:06:32;3.10;1.00
3846;DHT22;1938;50.812;7.738;2023-01-16T10:11:53;3.10;99.90
3846;DHT22;1938;50.812;7.738;2023-01-16T10:28:28;3.00;99.90
3846;DHT22;1938;50.812;7.738;2023-01-16T10:31:08;3.10;99.90
3846;DHT22;1938;50.812;7.738;2023-01-16T10:36:16;3.20;99.90
3846;DHT22;1938;50.812;7.738;2023-01-16T10:38:44;3.20;57.20
3846;DHT22;1938;50.812;7.738;2023-01-16T10:41:16;3.30;33.10
3846;DHT22;1938;50.812;7.738;2023-01-16T10:44:18;3.40;13.10
3846;DHT22;1938;50.812;7.738;2023-01-16T10:47:09;3.40;1.00
3846;DHT22;1938;50.812;7.738;2023-01-16T10:49:54;3.50;1.00
3846;DHT22;1938;50.812;7.738;2023-01-16T10:52:19;3.60;1.00
3846;DHT22;1938;50.812;7.738;2023-01-16T10:54:45;3.70;99.90
3846;DHT22;1938;50.812;7.738;2023-01-16T10:57:18;3.80;99.90
3846;DHT22;1938;50.812;7.738;2023-01-16T10:59:45;3.80;57.30
3846;DHT22;1938;50.812;7.738;2023-01-16T11:02:33;3.80;72.80
3846;DHT22;1938;50.812;7.738;2023-01-16T11:04:59;3.70;99.90
3846;DHT22;1938;50.812;7.738;2023-01-16T11:07:28;3.70;99.90
3846;DHT22;1938;50.812;7.738;2023-01-16T11:09:54;3.70;99.90
3846;DHT22;1938;50.812;7.738;2023-01-16T11:12:29;3.70;99.90
3846;DHT22;1938;50.812;7.738;2023-01-16T11:15:22;3.70;99.90
3846;DHT22;1938;50.812;7.738;2023-01-16T11:18:28;3.70;1.00
3846;DHT22;1938;50.812;7.738;2023-01-16T11:21:13;3.60;1.00
3846;DHT22;1938;50.812;7.738;2023-01-16T11:23:41;3.70;1.00
3846;DHT22;1938;50.812;7.738;2023-01-16T11:26:07;3.70;1.00
3846;DHT22;1938;50.812;7.738;2023-01-16T11:28:35;3.70;1.00
3846;DHT22;1938;50.812;7.738;2023-01-16T11:31:24;3.70;1.00
3846;DHT22;1938;50.812;7.738;2023-01-16T11:33:55;3.60;1.00
3846;DHT22;1938;50.812;7.738;2023-01-16T11:36:26;3.60;1.00
3846;DHT22;1938;50.812;7.738;2023-01-16T11:38:53;3.80;1.00
3846;DHT22;1938;50.812;7.738;2023-01-16T11:41:24;3.70;99.90
3846;DHT22;1938;50.812;7.738;2023-01-16T11:44:28;3.70;99.90
3846;DHT22;1938;50.812;7.738;2023-01-16T11:47:16;3.60;99.90
3846;DHT22;1938;50.812;7.738;2023-01-16T11:49:47;3.60;99.90
3846;DHT22;1938;50.812;7.738;2023-01-16T11:52:20;3.50;99.90
3846;DHT22;1938;50.812;7.738;2023-01-16T11:55:03;3.60;1.00
3846;DHT22;1938;50.812;7.738;2023-01-16T11:57:59;3.60;1.00
3846;DHT22;1938;50.812;7.738;2023-01-16T12:06:17;3.70;1.00
3846;DHT22;1938;50.812;7.738;2023-01-16T12:09:12;3.60;99.90
3846;DHT22;1938;50.812;7.738;2023-01-16T12:12:13;3.60;1.00
3846;DHT22;1938;50.812;7.738;2023-01-16T12:15:22;3.60;99.90
3846;DHT22;1938;50.812;7.738;2023-01-16T12:18:05;3.60;99.90
3846;DHT22;1938;50.812;7.738;2023-01-16T12:21:12;3.60;99.90
3846;DHT22;1938;50.812;7.738;2023-01-16T12:28:59;3.60;99.90
3846;DHT22;1938;50.812;7.738;2023-01-16T12:39:59;3.60;99.90
3846;DHT22;1938;50.812;7.738;2023-01-16T12:45:44;3.50;1.00
3846;DHT22;1938;50.812;7.738;2023-01-16T12:48:27;3.50;1.00
3846;DHT22;1938;50.812;7.738;2023-01-16T12:58:42;3.60;29.40
3846;DHT22;1938;50.812;7.738;2023-01-16T13:01:16;3.50;1.00
3846;DHT22;1938;50.812;7.738;2023-01-16T13:06:40;3.40;99.90
3846;DHT22;1938;50.812;7.738;2023-01-16T13:12:24;3.50;99.90
3846;DHT22;1938;50.812;7.738;2023-01-16T13:15:15;3.50;99.90
3846;DHT22;1938;50.812;7.738;2023-01-16T13:20:36;3.60;99.90
3846;DHT22;1938;50.812;7.738;2023-01-16T13:26:14;3.60;99.90
3846;DHT22;1938;50.812;7.738;2023-01-16T13:34:32;3.60;99.90
3846;DHT22;1938;50.812;7.738;2023-01-16T13:37:13;3.60;99.90
3846;DHT22;1938;50.812;7.738;2023-01-16T13:39:46;3.60;99.90
3846;DHT22;1938;50.812;7.738;2023-01-16T13:42:16;3.60;99.90
3846;DHT22;1938;50.812;7.738;2023-01-16T13:44:45;3.60;99.90
3846;DHT22;1938;50.812;7.738;2023-01-16T13:47:34;3.60;99.90
3846;DHT22;1938;50.812;7.738;2023-01-16T13:52:33;3.60;48.20
3846;DHT22;1938;50.812;7.738;2023-01-16T13:55:02;3.60;38.50
3846;DHT22;1938;50.812;7.738;2023-01-16T13:57:32;3.60;44.40
3846;DHT22;1938;50.812;7.738;2023-01-16T14:00:01;3.60;36.10
3846;DHT22;1938;50.812;7.738;2023-01-16T14:11:33;3.70;34.00
3846;DHT22;1938;50.812;7.738;2023-01-16T14:17:03;3.70;20.70
3846;DHT22;1938;50.812;7.738;2023-01-16T14:19:38;3.70;31.60
3846;DHT22;1938;50.812;7.738;2023-01-16T14:22:16;3.80;41.00
3846;DHT22;1938;50.812;7.738;2023-01-16T14:24:54;3.80;25.10
3846;DHT22;1938;50.812;7.738;2023-01-16T14:27:32;3.70;99.90
3846;DHT22;1938;50.812;7.738;2023-01-16T14:30:02;3.60;99.90
3846;DHT22;1938;50.812;7.738;2023-01-16T14:32:30;3.50;99.90
3846;DHT22;1938;50.812;7.738;2023-01-16T14:34:57;3.50;99.90
3846;DHT22;1938;50.812;7.738;2023-01-16T14:37:25;3.50;99.90
3846;DHT22;1938;50.812;7.738;2023-01-16T14:39:57;3.50;99.90
3846;DHT22;1938;50.812;7.738;2023-01-16T14:42:35;3.50;99.90
3846;DHT22;1938;50.812;7.738;2023-01-16T14:45:24;3.50;99.90
3846;DHT22;1938;50.812;7.738;2023-01-16T14:56:42;3.60;99.90
3846;DHT22;1938;50.812;7.738;2023-01-16T14:59:14;3.60;99.90
3846;DHT22;1938;50.812;7.738;2023-01-16T15:02:17;3.50;99.90
3846;DHT22;1938;50.812;7.738;2023-01-16T15:05:13;3.50;99.90
3846;DHT22;1938;50.812;7.738;2023-01-16T15:07:46;3.50;99.90
3846;DHT22;1938;50.812;7.738;2023-01-16T15:13:15;3.50;99.90
3846;DHT22;1938;50.812;7.738;2023-01-16T15:15:48;3.50;99.90
3846;DHT22;1938;50.812;7.738;2023-01-16T15:18:17;3.50;99.90
3846;DHT22;1938;50.812;7.738;2023-01-16T15:21:03;3.40;99.90
3846;DHT22;1938;50.812;7.738;2023-01-16T15:23:47;3.40;99.90
3846;DHT22;1938;50.812;7.738;2023-01-16T15:29:09;3.40;99.90
3846;DHT22;1938;50.812;7.738;2023-01-16T15:31:40;3.40;99.90
3846;DHT22;1938;50.812;7.738;2023-01-16T15:36:47;3.40;99.90
3846;DHT22;1938;50.812;7.738;2023-01-16T15:42:14;3.40;99.90
3846;DHT22;1938;50.812;7.738;2023-01-16T15:45:08;3.40;99.90
3846;DHT22;1938;50.812;7.738;2023-01-16T15:53:05;3.30;99.90
3846;DHT22;1938;50.812;7.738;2023-01-16T15:55:38;3.30;99.90
3846;DHT22;1938;50.812;7.738;2023-01-16T15:58:05;3.30;99.90
3846;DHT22;1938;50.812;7.738;2023-01-16T16:00:33;3.40;99.90
3846;DHT22;1938;50.812;7.738;2023-01-16T16:03:06;3.40;99.90
3846;DHT22;1938;50.812;7.738;2023-01-16T16:05:36;3.40;99.90
3846;DHT22;1938;50.812;7.738;2023-01-16T16:08:03;3.40;99.90
3846;DHT22;1938;50.812;7.738;2023-01-16T16:10:38;3.40;99.90
3846;DHT22;1938;50.812;7.738;2023-01-16T16:13:22;3.40;99.90
3846;DHT22;1938;50.812;7.738;2023-01-16T16:15:59;3.40;99.90
3846;DHT22;1938;50.812;7.738;2023-01-16T16:18:57;3.30;99.90
3846;DHT22;1938;50.812;7.738;2023-01-16T16:21:44;3.30;99.90
3846;DHT22;1938;50.812;7.738;2023-01-16T16:24:35;3.30;99.90
3846;DHT22;1938;50.812;7.738;2023-01-16T16:27:12;3.50;99.90
3846;DHT22;1938;50.812;7.738;2023-01-16T16:29:39;3.70;99.90
3846;DHT22;1938;50.812;7.738;2023-01-16T16:32:10;3.80;99.90
3846;DHT22;1938;50.812;7.738;2023-01-16T16:34:37;3.80;99.90
3846;DHT22;1938;50.812;7.738;2023-01-16T16:37:08;3.80;99.90
3846;DHT22;1938;50.812;7.738;2023-01-16T16:42:00;3.70;99.90
3846;DHT22;1938;50.812;7.738;2023-01-16T16:44:46;3.80;99.90
3846;DHT22;1938;50.812;7.738;2023-01-16T16:47:30;3.60;99.90
3846;DHT22;1938;50.812;7.738;2023-01-16T16:49:56;3.70;99.90
3846;DHT22;1938;50.812;7.738;2023-01-16T16:52:38;3.70;99.90
3846;DHT22;1938;50.812;7.738;2023-01-16T16:55:39;3.70;99.90
3846;DHT22;1938;50.812;7.738;2023-01-16T16:58:17;3.60;99.90
3846;DHT22;1938;50.812;7.738;2023-01-16T17:00:45;3.60;99.90
3846;DHT22;1938;50.812;7.738;2023-01-16T17:03:19;3.70;99.90
3846;DHT22;1938;50.812;7.738;2023-01-16T17:05:46;3.70;99.90
3846;DHT22;1938;50.812;7.738;2023-01-16T17:08:22;3.80;99.90
3846;DHT22;1938;50.812;7.738;2023-01-16T17:10:49;3.80;99.90
3846;DHT22;1938;50.812;7.738;2023-01-16T17:13:18;3.80;99.90
3846;DHT22;1938;50.812;7.738;2023-01-16T17:15:45;3.90;99.90
3846;DHT22;1938;50.812;7.738;2023-01-16T17:18:12;3.90;99.90
3846;DHT22;1938;50.812;7.738;2023-01-16T17:20:39;3.90;99.90
3846;DHT22;1938;50.812;7.738;2023-01-16T17:23:15;3.90;99.90
3846;DHT22;1938;50.812;7.738;2023-01-16T17:25:42;3.90;99.90
3846;DHT22;1938;50.812;7.738;2023-01-16T17:28:08;3.90;99.90
3846;DHT22;1938;50.812;7.738;2023-01-16T17:30:34;3.90;99.90
3846;DHT22;1938;50.812;7.738;2023-01-16T17:33:03;3.90;99.90
3846;DHT22;1938;50.812;7.738;2023-01-16T17:35:35;4.00;99.90
3846;DHT22;1938;50.812;7.738;2023-01-16T17:38:01;4.20;99.90
3846;DHT22;1938;50.812;7.738;2023-01-16T17:40:26;4.00;99.90
3846;DHT22;1938;50.812;7.738;2023-01-16T17:42:52;4.00;99.90
3846;DHT22;1938;50.812;7.738;2023-01-16T17:45:42;4.00;99.90
3846;DHT22;1938;50.812;7.738;2023-01-16T17:48:18;4.00;99.90
3846;DHT22;1938;50.812;7.738;2023-01-16T17:50:44;4.00;99.90
3846;DHT22;1938;50.812;7.738;2023-01-16T17:53:11;4.00;99.90
3846;DHT22;1938;50.812;7.738;2023-01-16T17:55:40;3.70;99.90
3846;DHT22;1938;50.812;7.738;2023-01-16T18:00:52;3.40;99.90
3846;DHT22;1938;50.812;7.738;2023-01-16T18:03:17;3.20;99.90
3846;DHT22;1938;50.812;7.738;2023-01-16T18:05:44;2.90;99.90
3846;DHT22;1938;50.812;7.738;2023-01-16T18:08:10;3.00;99.90
3846;DHT22;1938;50.812;7.738;2023-01-16T18:10:35;2.90;99.90
3846;DHT22;1938;50.812;7.738;2023-01-16T18:13:01;2.80;99.90
3846;DHT22;1938;50.812;7.738;2023-01-16T18:15:45;2.80;99.90
3846;DHT22;1938;50.812;7.738;2023-01-16T18:18:29;2.80;99.90
3846;DHT22;1938;50.812;7.738;2023-01-16T18:20:55;2.80;99.90
3846;DHT22;1938;50.812;7.738;2023-01-16T18:23:39;2.90;99.90
3846;DHT22;1938;50.812;7.738;2023-01-16T18:26:05;2.90;99.90
3846;DHT22;1938;50.812;7.738;2023-01-16T18:28:31;2.90;99.90
3846;DHT22;1938;50.812;7.738;2023-01-16T18:31:03;2.90;99.90
3846;DHT22;1938;50.812;7.738;2023-01-16T18:33:29;3.00;99.90
3846;DHT22;1938;50.812;7.738;2023-01-16T18:36:00;3.10;99.90
3846;DHT22;1938;50.812;7.738;2023-01-16T18:38:26;3.10;99.90
3846;DHT22;1938;50.812;7.738;2023-01-16T18:41:10;3.20;99.90
3846;DHT22;1938;50.812;7.738;2023-01-16T18:43:55;3.30;99.90
3846;DHT22;1938;50.812;7.738;2023-01-16T18:46:39;3.40;99.90
3846;DHT22;1938;50.812;7.738;2023-01-16T18:49:23;3.40;99.90
3846;DHT22;1938;50.812;7.738;2023-01-16T18:52:14;3.40;99.90
3846;DHT22;1938;50.812;7.738;2023-01-16T18:55:00;3.20;99.90
3846;DHT22;1938;50.812;7.738;2023-01-16T18:57:44;3.00;99.90
3846;DHT22;1938;50.812;7.738;2023-01-16T19:00:43;2.90;99.90
3846;DHT22;1938;50.812;7.738;2023-01-16T19:03:27;2.90;99.90
3846;DHT22;1938;50.812;7.738;2023-01-16T19:05:53;2.80;99.90
3846;DHT22;1938;50.812;7.738;2023-01-16T19:08:20;2.80;99.90
3846;DHT22;1938;50.812;7.738;2023-01-16T19:10:53;2.70;99.90
3846;DHT22;1938;50.812;7.738;2023-01-16T19:13:20;2.70;99.90
3846;DHT22;1938;50.812;7.738;2023-01-16T19:15:46;2.90;99.90